Ken Sappinen

首席球探 - FCI Tallinn
20 十一月 2027
星期六
處理

性格

適應力 (9) 野心 (17) 爭議性 (10) 忠誠度 (19) 抗壓 (5) 職業素養 (11) 體育精神 (11) 性情 (6)

個人檔案

執教風格 民主型
教練證照 國家B級
決心 5
人員管理 3
激勵 9
紀律 4
工作滿意度
100%
疲勞度
0%
職務 首席球探
薪資 28.3K 每週
合約 14.03.2030

性能

行為 良好
訓練效果
21%
球員發展
10%
傷病預防
30%
戰術執行
10%

近期事件

考察了一名球員 刚刚
参加了招募会议 刚刚
考察了一名球員 刚刚
考察了一名球員 7天前
参加了招募会议 7天前
考察了一名球員 7天前
考察了一名球員 7天前
考察了一名球員 14天前

正在监控

343
球員 俱樂部 狀態 能力 信心 已观察 最后观察 最新投票
Juan Rocca Gimnasia y Tiro 活跃 114 / 104 40% 4 19.11.2027 -
Konstantin Kuchinskiy Minsk 活跃 103 / 97 40% 1 19.11.2027 -
Facundo Castelli Estudiantes 活跃 118 / 119 40% 3 17.11.2027 -
Dmitriy Vashkevich Lida 活跃 79 / 91 40% 3 16.11.2027 -
Gianluca Pugliese Güemes 活跃 110 / 123 40% 2 16.11.2027 -
Renato Alexandrino Oriental 活跃 113 / 91 40% 2 15.11.2027 -
Agustín Lavezzi Quilmes 活跃 122 / 113 40% 2 15.11.2027 -
Jonathan Cañete Portuguesa 活跃 114 / 113 40% 2 13.11.2027 -
Marco Miori Alvarado 活跃 131 / 100 40% 4 13.11.2027 -
Franco Ayunta Temperley 活跃 116 / 100 40% 1 12.11.2027 -
Fabricio Rojas Gimnasia y Tiro 活跃 114 / 100 40% 3 08.11.2027 -
Juan Mendoza Güemes 活跃 110 / 106 40% 2 08.11.2027 -
Gafar Saka Plateau United 活跃 96 / 83 40% 1 07.11.2027 -
Juan Cruz Zurbriggen San Telmo 活跃 104 / 110 40% 2 06.11.2027 -
Ronny Maza Aragua 活跃 104 / 100 40% 1 06.11.2027 -
Jhon Murillo America de Cali 活跃 107 / 123 40% 4 05.11.2027 -
Lisandro Cabrera Maipú 活跃 112 / 108 40% 2 05.11.2027 -
Martín Álvarez Tristán Suárez 活跃 123 / 109 40% 3 05.11.2027 -
Andrey Solovey Slavia Mozyr 活跃 96 / 95 40% 2 05.11.2027 -
Eugenio Olivera Talleres 活跃 115 / 107 40% 2 03.11.2027 -
Carlos Gugenheim Almirante Brown 活跃 121 / 106 40% 1 29.10.2027 -
Valeriy Gorbachik Arsenal Dzerzhinsk 活跃 91 / 82 40% 1 29.10.2027 -
Mikhail Bondarenko Dinamo Brest 活跃 73 / 80 40% 1 28.10.2027 -
Luca Franco Arsenal 活跃 116 / 124 40% 2 27.10.2027 -
Juan David Rueda Alianza Petrolera 活跃 105 / 124 40% 3 26.10.2027 -
Augusto Berrondo Tristán Suárez 活跃 121 / 119 40% 5 25.10.2027 -
Maxim Maximov Smorgon 活跃 100 / 93 40% 4 24.10.2027 -
Santiago Sala Güemes 活跃 118 / 126 40% 1 24.10.2027 -
Guljigit Borubaev Neman 活跃 99 / 93 40% 3 23.10.2027 -
Enzo González Defensores 活跃 119 / 106 40% 2 23.10.2027 -
Sunday Megwo Abia Warriors 活跃 91 / 110 40% 2 23.10.2027 -
Andrey Potapenko Dnepr Mogilev 活跃 82 / 80 40% 1 23.10.2027 -
Andrés Tello Deportes Quindio 活跃 110 / 119 40% 1 22.10.2027 -
Uladzimir Palitsevich Lokomotiv Gomel 活跃 73 / 83 40% 5 19.10.2027 -
Franco Fagúndez Estudiantes 活跃 107 / 115 40% 2 18.10.2027 -
Evgeniy Yudchits Isloch 活跃 105 / 91 40% 3 16.10.2027 -
Ilya Tishurov Osipovichi 活跃 73 / 74 40% 1 16.10.2027 -
Franco Vedoya Central Norte 活跃 98 / 110 40% 1 16.10.2027 -
Diego Gaitán Maipú 活跃 124 / 124 40% 1 15.10.2027 -
Ivan Tolkachev Arsenal Dzerzhinsk 活跃 79 / 75 40% 1 12.10.2027 -
Lucas Ríos Atlanta 活跃 122 / 101 40% 3 11.10.2027 -
Arseniy Zhukovskiy Slonim 活跃 85 / 85 40% 1 10.10.2027 -
Kleyder Barreto Estudiantes de Caracas 活跃 87 / 98 40% 1 07.10.2027 -
Germán Cervera Alvarado 活跃 113 / 95 40% 1 06.10.2027 -
Kirill Zabelin Dnepr Mogilev 活跃 81 / 91 40% 1 06.10.2027 -
Kirill Tsepenkov Dnepr Mogilev 活跃 108 / 104 40% 2 05.10.2027 -
Maximiliano Meléndez Chacarita Juniors 活跃 99 / 123 40% 1 05.10.2027 -
Ivan Tikhonov Naftan 活跃 81 / 74 40% 1 01.10.2027 -
Cheickna Samaké Djoliba 活跃 122 / 99 40% 3 26.09.2027 -
Alejandro Aquino Zulia 活跃 100 / 88 40% 1 26.09.2027 -
Marcos Camarda Santiago Wanderers 活跃 99 / 102 40% 1 25.09.2027 -
Moussakoye Diallo Stade Malien 活跃 118 / 114 40% 2 24.09.2027 -
Octavio Bianchi Gimnasia y Esgrima 活跃 112 / 113 40% 2 23.09.2027 -
Lucio Castillo Colegiales 活跃 111 / 107 40% 1 20.09.2027 -
Santiago Apa All Boys 活跃 112 / 122 40% 1 20.09.2027 -
Tomás Bolzicco Chaco For Ever 活跃 85 / 113 40% 1 19.09.2027 -
Facundo Castro Nueva Chicago 活跃 129 / 119 40% 1 19.09.2027 -
Dmitriy Galuza Naftan 活跃 89 / 91 40% 1 17.09.2027 -
Elmer Arunta Bendel Insurance 活跃 94 / 90 40% 1 16.09.2027 -
Miguel Celis Estudiantes de Merida 活跃 83 / 81 40% 1 16.09.2027 -
Oscar Ferraresi Llaneros 活跃 108 / 114 40% 1 11.09.2027 -
Daouda Natama Minsk 活跃 97 / 86 40% 1 09.09.2027 -
Lautaro Gordillo Colegiales 活跃 94 / 102 40% 1 08.09.2027 -
Lamine Diakité Djoliba 活跃 115 / 112 40% 1 07.09.2027 -
Martín Álvarez Tristán Suárez 已失去 88 / 100 40% 1 16.08.2027 -
Saliou Guindo Real Bamako 活跃 104 / 107 40% 1 16.08.2027 -
Nicolás Sosa Racing 活跃 117 / 106 40% 1 04.08.2027 -
Guillaume Furrer Lecco 活跃 125 / 113 40% 1 30.07.2027 -
Dmitriy Khalimonchikov Uni-X Labs 活跃 89 / 81 40% 1 30.07.2027 -
Nicola Dalmonte Trento 活跃 115 / 95 40% 1 29.07.2027 -
Tiago Casasola Union Brescia 活跃 111 / 121 40% 1 29.07.2027 -
Giacomo Zecca Torres 活跃 99 / 96 40% 1 27.07.2027 -
Davide Di Molfetta Union Brescia 活跃 100 / 101 40% 1 27.07.2027 -
Marco Bertoli Ospitaletto 已失去 80 / 103 40% 1 26.07.2027 -
Gianluca Contini Siracusa 活跃 113 / 96 40% 1 26.07.2027 -
Liam Grimshaw Grimsby Town 已失去 98 / 85 40% 1 22.07.2027 -
Marco Zunno Crotone 活跃 106 / 93 40% 2 21.07.2027 -
Jacques Bayo Ospitaletto 活跃 77 / 104 40% 1 21.07.2027 -
Vladislav Kamilov Ufa 活跃 115 / 97 40% 6 12.07.2027 -
Giovanni Bruzzaniti Catania 活跃 135 / 104 40% 1 12.07.2027 -
Kamran Aliev SKA Khabarovsk 活跃 116 / 111 40% 2 28.06.2027 -
Soltmurad Bakaev Rodina 活跃 119 / 107 40% 8 21.06.2027 -
Krasian Kolev Chernomorets 活跃 106 / 107 40% 2 21.06.2027 -
Gavin Vlijter Neftekhimik 活跃 96 / 87 40% 1 31.05.2027 -
Daniil Konoplev Dinamo Bryansk 活跃 81 / 84 40% 1 31.05.2027 -
Baldovino Cimino Cosenza 活跃 113 / 105 40% 1 31.05.2027 -
Vadim Averkiev Orel 活跃 81 / 81 40% 2 30.05.2027 -
Ludovico Del Sorbo Sorrento 活跃 92 / 118 40% 3 30.05.2027 -
Rio Adébísí Peterborough United 活跃 112 / 86 40% 2 30.05.2027 -
Marko Bugarin Spartak Kostroma 活跃 109 / 106 40% 1 30.05.2027 -
Leo Goglichidze Rodina 活跃 118 / 109 40% 4 29.05.2027 -
Islam Imamov SKA Khabarovsk 活跃 102 / 102 40% 2 29.05.2027 -
Alessio Pozzi Vis Pesaro 活跃 109 / 103 40% 1 29.05.2027 -
Ilja Agapov Ufa 活跃 112 / 110 40% 1 29.05.2027 -
Iker Pozo Rodina 活跃 115 / 111 40% 4 28.05.2027 -
Ilja Zhigulev Chernomorets 活跃 110 / 99 40% 4 28.05.2027 -
Aaron Drinan Swindon Town 活跃 105 / 120 40% 3 27.05.2027 -
William Rovida Pro Patria 活跃 87 / 122 40% 2 27.05.2027 -
Matteo Rizzo Cosenza 活跃 119 / 102 40% 1 27.05.2027 -
Tudor Mendel-Idowu Colchester United 活跃 103 / 97 40% 1 27.05.2027 -
Kristijan Bistrović Akron 活跃 124 / 115 40% 2 25.05.2027 -
Rinat Shakerov Volga 活跃 104 / 86 40% 3 25.05.2027 -
Pavel Maslov Chaika 活跃 97 / 102 40% 2 25.05.2027 -
Samuele Vitale Ascoli 活跃 122 / 109 40% 1 25.05.2027 -
Ousmane Ndong Akhmat Grozny 活跃 123 / 108 40% 1 25.05.2027 -
Semyon Bobrov Saturn 活跃 85 / 69 40% 5 24.05.2027 -
Alessio Cragno Südtirol 活跃 124 / 122 40% 2 24.05.2027 -
Vladislav Masternoy SKA Khabarovsk 活跃 101 / 95 40% 2 23.05.2027 -
Stefano Gori Union Brescia 活跃 136 / 130 40% 2 23.05.2027 -
Luca Gemello Perugia 活跃 103 / 114 40% 1 23.05.2027 -
Nikolay Rybikov Dinamo St Petersburg 活跃 80 / 86 40% 7 22.05.2027 -
Kane Drummond Oldham Athletic 活跃 77 / 104 40% 2 22.05.2027 -
Sergio Barlocco Trento 活跃 100 / 104 40% 1 22.05.2027 -
Emanuele Schimmenti Potenza 活跃 129 / 117 40% 1 22.05.2027 -
Sam Gale Gillingham 活跃 84 / 109 40% 1 22.05.2027 -
Arshak Koryan SKA Khabarovsk 活跃 106 / 88 40% 3 21.05.2027 -
Anton Antonov Chernomorets 活跃 97 / 89 40% 2 21.05.2027 -
Nikita Chagrov Rotor 活跃 97 / 97 40% 6 20.05.2027 -
Alexey Berdnikov Chelyabinsk 活跃 96 / 101 40% 2 20.05.2027 -
Mohamed Mallahi Pro Vercelli 活跃 106 / 113 40% 1 20.05.2027 -
Edarlyn Reyes Arsenal Tula 活跃 101 / 108 40% 6 19.05.2027 -
Danila Shilov Dinamo Stavropol 活跃 88 / 95 40% 4 19.05.2027 -
Ansor Khabibov Ryazan 活跃 92 / 93 40% 2 19.05.2027 -
Daniil Frolkin Shinnik 活跃 115 / 109 40% 2 19.05.2027 -
Giovanni Stellato Guidonia Montecelio 活跃 92 / 97 40% 1 19.05.2027 -
Aleksej Golijanin Sokol 活跃 94 / 88 40% 1 19.05.2027 -
Daniil Gurchenko Spartak Tambov 活跃 88 / 87 40% 2 17.05.2027 -
Anton Betyuzhnov Dinamo Vologda 活跃 71 / 74 40% 2 17.05.2027 -
Timur Kraikov Sokol 活跃 93 / 98 40% 4 16.05.2027 -
Gianmarco Vannucchi Benevento 活跃 105 / 129 40% 2 16.05.2027 -
Matteo Sorzi Carpi 活跃 104 / 88 40% 2 15.05.2027 -
Ibourahima Baldé Giugliano 活跃 115 / 90 40% 1 15.05.2027 -
Andrea Sergio Mazza Giana Erminio 活跃 108 / 83 40% 1 15.05.2027 -
Artem Golubev Shinnik 活跃 105 / 86 40% 3 13.05.2027 -
Nikita Yanovich Tyumen 活跃 98 / 96 40% 2 13.05.2027 -
Oleg Lanin Shinnik 活跃 111 / 96 40% 2 13.05.2027 -
Nikita Kireev Dinamo Vologda 活跃 74 / 85 40% 1 12.05.2027 -
Dmitry Ternovskiy Dinamo Stavropol 活跃 80 / 88 40% 4 11.05.2027 -
Surkhaikhan Abdullaev KAMAZ 活跃 88 / 90 40% 2 10.05.2027 -
Alexandr Nadolskiy Yenisey 活跃 86 / 101 40% 1 10.05.2027 -
Omar Popov Dinamo St Petersburg 活跃 88 / 79 40% 1 09.05.2027 -
Nader Mohammadi Spartak Kostroma 活跃 107 / 107 40% 3 08.05.2027 -
Sergey Volkov Rodina 活跃 107 / 102 40% 3 08.05.2027 -
Elia Boseggia Novara 活跃 94 / 116 40% 1 08.05.2027 -
Marco Pagliari Ternana 活跃 103 / 98 40% 1 08.05.2027 -
Roman Raifegerste Khimik 活跃 89 / 78 40% 3 07.05.2027 -
Ivan Lomaev Ufa 活跃 105 / 112 40% 6 07.05.2027 -
Andrea Mattioli Arzignano 活跃 112 / 91 40% 1 05.05.2027 -
Luca Maniero Cittadella 活跃 86 / 116 40% 1 04.05.2027 -
Kirill Malyarov Shinnik 已失去 103 / 96 40% 1 04.05.2027 -
Achraf el Bouchataoui Pro Vercelli 活跃 122 / 114 40% 1 04.05.2027 -
Alexandr Saplinov Volga 活跃 93 / 99 40% 3 03.05.2027 -
Said Aliev Rotor 活跃 108 / 90 40% 1 03.05.2027 -
Elia Summa Picerno 活跃 96 / 102 40% 2 02.05.2027 -
Faruk Gogić Spartak Kostroma 活跃 94 / 89 40% 2 01.05.2027 -
Nikolay Giorgobiani Fakel 活跃 110 / 103 40% 2 30.04.2027 -
Valerio Boffelli Cavese 活跃 92 / 117 40% 1 30.04.2027 -
Alan Tsaraev Arsenal Tula 活跃 110 / 97 40% 1 30.04.2027 -
Maxim Khramtsov Rotor 活跃 92 / 101 40% 2 29.04.2027 -
Vasily Cherov Ufa 活跃 110 / 102 40% 3 29.04.2027 -
Dmitry Saganovich Luki-Energiya 活跃 78 / 80 40% 4 28.04.2027 -
Nikita Demchenko Spartak Kostroma 活跃 91 / 96 40% 2 27.04.2027 -
Tommaso Nobile Renate 活跃 101 / 96 40% 1 27.04.2027 -
Nikita Yershov Kosmos 活跃 93 / 77 40% 1 27.04.2027 -
Ilja Safronov Rotor 活跃 98 / 107 40% 6 26.04.2027 -
Migran Ageyan Ufa 活跃 85 / 103 40% 1 26.04.2027 -
Alexey Vakulich Arsenal Tula 活跃 94 / 100 40% 2 25.04.2027 -
Brendan Wiredu Plymouth Argyle 活跃 107 / 113 40% 1 25.04.2027 -
Danil Ryazanov Rostov 活跃 71 / 79 40% 7 24.04.2027 -
Gevork Sarkisyan Saturn 活跃 80 / 74 40% 1 24.04.2027 -
Bekkhan Aliev Sevastopol 活跃 78 / 80 40% 1 24.04.2027 -
Mingiyan Beveev Baltika 活跃 114 / 117 40% 2 23.04.2027 -
Alexey Kenyaikin Rubin 活跃 94 / 90 40% 2 22.04.2027 -
Aslanbek Kumykov Spartak Nalchik 活跃 75 / 67 40% 4 22.04.2027 -
German Onugkha Rodina 活跃 129 / 113 40% 3 22.04.2027 -
Vladislav Zernaev Salyut 活跃 83 / 76 40% 5 21.04.2027 -
Alexandr Konev Salyut 活跃 87 / 75 40% 1 19.04.2027 -
Ivan Shilenok Zenit 活跃 85 / 87 40% 1 19.04.2027 -
Miloš Brnović Arsenal Tula 活跃 116 / 114 40% 1 19.04.2027 -
Mikhail Gainov Dinamo Stavropol 活跃 81 / 82 40% 2 18.04.2027 -
Alexandr Ryabinkin Textilschik 活跃 84 / 94 40% 5 16.04.2027 -
Eduard Bagrintsev Znamya Truda 活跃 71 / 76 40% 2 16.04.2027 -
Ruslan Baitukov Chelyabinsk 活跃 97 / 89 40% 1 16.04.2027 -
Nikolay Tarasov Spartak Kostroma 活跃 109 / 96 40% 1 15.04.2027 -
Artem Bykov Sokol 活跃 105 / 91 40% 2 14.04.2027 -
Islamzhan Nasyrov Ryazan 活跃 92 / 90 40% 1 14.04.2027 -
Daniil Penchikov Arsenal Tula 活跃 96 / 105 40% 2 13.04.2027 -
Nikita Pechenkin Sokol 活跃 110 / 94 40% 2 13.04.2027 -
Emmanuel Kyereh WAFA 活跃 85 / 92 40% 1 13.04.2027 -
Ramazan Gadjimuradov Chelyabinsk 活跃 94 / 105 40% 2 12.04.2027 -
Artur Murza Volga 活跃 99 / 96 40% 4 12.04.2027 -
Nikita Pavlov Chaika 活跃 89 / 85 40% 6 12.04.2027 -
David Sangaré Ryazan 活跃 90 / 99 40% 4 11.04.2027 -
Marios Siabanis Volos NPS 活跃 104 / 119 40% 1 11.04.2027 -
Soslan Lysenko Spartak Nalchik 活跃 82 / 84 40% 2 10.04.2027 -
Yegor Shamov Yenisey 活跃 91 / 103 40% 4 08.04.2027 -
Pavel Popov Volna 活跃 72 / 87 40% 1 08.04.2027 -
Alan Khabalov Ufa 活跃 93 / 86 40% 4 07.04.2027 -
Aziz Gaziev Dinamo St Petersburg 活跃 86 / 68 40% 1 07.04.2027 -
Konstantin Kovalev Volga 活跃 97 / 88 40% 1 07.04.2027 -
George Wickens Lincoln City 活跃 130 / 113 40% 1 05.04.2027 -
Georgy Natabashvili Chernomorets 活跃 94 / 91 40% 1 04.04.2027 -
Mikhail Gaidash Spartak Kostroma 活跃 100 / 96 40% 5 03.04.2027 -
Timur Akmurzin Dinamo Bryansk 活跃 96 / 97 40% 4 02.04.2027 -
Danila Yanov Shinnik 活跃 107 / 96 40% 1 01.04.2027 -
Oleg Suvorov Mashuk 活跃 94 / 95 40% 2 31.03.2027 -
Vyacheslav Yakimov Fakel 活跃 114 / 110 40% 1 30.03.2027 -
Vladislav Poletaev Irtysh 活跃 79 / 89 40% 3 29.03.2027 -
Andrey Bondar' Spartak Tambov 活跃 85 / 82 40% 2 29.03.2027 -
Maxim Moskovets Uralets-TS 活跃 77 / 69 40% 3 28.03.2027 -
Georgy Tuaev Rubin Yalta 活跃 67 / 66 40% 3 27.03.2027 -
Denis Pokotylo Chelyabinsk 活跃 80 / 79 40% 1 23.03.2027 -
Edoardo Colombo Gzira United 活跃 70 / 70 40% 1 23.03.2027 -
Manú Zabbar St. Patrick 活跃 71 / 98 40% 1 20.03.2027 -
Alexandr Ektov Nizhniy Novgorod 活跃 120 / 117 40% 2 19.03.2027 -
Alexandr Grigorjev Angusht 活跃 81 / 70 40% 1 19.03.2027 -
N'Golo Traoré Stade Malien 活跃 97 / 103 40% 1 19.03.2027 -
Marat Tlekhugov Yenisey 活跃 76 / 94 40% 1 19.03.2027 -
Alexandr Novikov Dinamo Bryansk 活跃 79 / 90 40% 2 17.03.2027 -
Artem Sokol Rodina 活跃 108 / 102 40% 2 14.03.2027 -
Bojan Dimoski Akron 活跃 114 / 113 40% 1 13.03.2027 -
Nikolay Pokidyshev Rotor 活跃 101 / 107 40% 1 13.03.2027 -
Alexandr Troshechkin Rotor 活跃 109 / 95 40% 2 12.03.2027 -
Célio Hamrun Spartans 活跃 65 / 72 40% 3 08.03.2027 -
Nikita Zheimo Murom 活跃 95 / 81 40% 1 08.03.2027 -
Nikita Kokarev Spartak Moscow 活跃 112 / 112 40% 1 07.03.2027 -
Igor Konovalov Chernomorets 活跃 91 / 105 40% 2 05.03.2027 -
Oleksandr Rosputko Chaika 活跃 81 / 99 40% 1 05.03.2027 -
Petr Kosarevskiy Sibir 活跃 103 / 111 40% 4 04.03.2027 -
Joshua Baba AS Bakaridjan 活跃 101 / 95 40% 1 03.03.2027 -
Garrik Levin Chelyabinsk 活跃 91 / 99 40% 2 02.03.2027 -
Andrea Chukanov Yenisey 活跃 113 / 97 40% 2 02.03.2027 -
Razhab Magomedov Dinamo Makhachkala 活跃 112 / 102 40% 2 01.03.2027 -
Amir Fattakhov Znamya Truda 活跃 82 / 67 40% 2 01.03.2027 -
Ruslan Myalkovskiy Lokomotiv Moscow 活跃 94 / 108 40% 1 01.03.2027 -
Vitaly Dunay (Karpenko) Chaika 活跃 89 / 99 40% 1 01.03.2027 -
Giorgi Kantaria Neftekhimik 活跃 91 / 93 40% 2 25.02.2027 -
Stanislav Kleschuk Gomel 活跃 93 / 88 40% 2 23.02.2027 -
Dmitry Rebrov Volna 活跃 79 / 82 40% 2 22.02.2027 -
Alexandr Naumovich Neman 活跃 97 / 88 40% 2 21.02.2027 -
Daniil Agureev Amkar 活跃 93 / 78 40% 3 20.02.2027 -
Timofey Shipunov Ufa 活跃 79 / 83 40% 2 20.02.2027 -
Jacob Poytress Rodina M 活跃 80 / 67 40% 1 20.02.2027 -
Rashid Magomedov Neftekhimik 活跃 92 / 84 40% 1 18.02.2027 -
Ilja Azyavin Arsenal Tula 活跃 81 / 85 40% 1 18.02.2027 -
Abdula Bagamaev Fakel 活跃 98 / 101 40% 2 15.02.2027 -
Maxim Kutovoy Salyut 活跃 84 / 92 40% 1 13.02.2027 -
Ilja Tuseev Chelyabinsk 活跃 89 / 106 40% 1 10.02.2027 -
Darko Todorović Fakel 活跃 113 / 112 40% 5 02.02.2027 -
Maxim Vafiev Torpedo Vladimir 活跃 81 / 78 40% 1 02.02.2027 -
Alexandr Maximenko Spartak Moscow 活跃 119 / 126 40% 3 25.01.2027 -
Pedro Rocha Juventude 活跃 116 / 124 40% 1 21.01.2027 -
Alexey Kuznetsov Leningradets 活跃 89 / 92 40% 3 20.01.2027 -
Rostislav Soldatenko Torpedo Moscow 活跃 101 / 107 40% 2 07.01.2027 -
Tom Smith Chertanovo 活跃 70 / 84 40% 1 03.01.2027 -
Andrey Khityaev Rotor 活跃 95 / 93 40% 1 30.12.2026 -
Aleksa Đurasović Akron 活跃 105 / 122 40% 3 29.12.2026 -
David Kokoev Yenisey 活跃 104 / 107 40% 1 26.12.2026 -
Stanislav Magkeev Fakel 活跃 103 / 107 40% 1 26.12.2026 -
David Karaev KAMAZ 已失去 90 / 103 40% 4 21.12.2026 -
Vladislav Ignatenko Amkar 活跃 80 / 80 40% 1 20.12.2026 -
Ilja Berkovskiy Torpedo Moscow 活跃 100 / 109 40% 1 20.12.2026 -
Léo Cordeiro Ural 活跃 101 / 101 40% 3 19.12.2026 -
Dmitry Kratkov Dinamo Stavropol 活跃 93 / 82 40% 3 15.12.2026 -
Luka Gagnidze Dinamo Moscow 活跃 120 / 109 40% 3 13.12.2026 -
Jonathan Okoronkwo Torpedo Moscow 活跃 90 / 99 40% 2 13.12.2026 -
Ruslan Chobanov Chaika 活跃 94 / 87 40% 2 12.12.2026 -
Maxim Vedeneev Metallurg 活跃 101 / 95 40% 1 10.12.2026 -
Roman Zaschepkin KAMAZ 活跃 105 / 100 40% 1 09.12.2026 -
Igor Shkolik SKA Khabarovsk 活跃 107 / 103 40% 1 06.12.2026 -
Ivan Severjanov Volna 活跃 77 / 77 40% 1 04.12.2026 -
Denis Mikhailov Amkar 活跃 84 / 79 40% 1 01.12.2026 -
Sven Karič Nizhniy Novgorod 活跃 108 / 120 40% 3 29.11.2026 -
Maxim Shnaptsev Baltika 活跃 101 / 101 40% 1 29.11.2026 -
Oleg Krasilnichenko Volga 活跃 102 / 89 40% 1 22.11.2026 -
Tamaz Topuria Mashuk 活跃 77 / 75 40% 1 21.11.2026 -
Nikolay Rasskazov Krylya Sovetov 活跃 114 / 106 40% 2 19.11.2026 -
Kamil Ibragimov Volga 活跃 105 / 87 40% 1 19.11.2026 -
Alexandr Bem Tyumen 活跃 92 / 99 40% 1 17.11.2026 -
Oleg Nikolaev Sibir 活跃 86 / 83 40% 1 15.11.2026 -
Magomed Nasibov Pobeda 活跃 79 / 80 40% 1 14.11.2026 -
Alexandr Rudenko Lokomotiv Moscow 活跃 115 / 125 40% 2 13.11.2026 -
Magomednabi Yagjaev Nart 活跃 76 / 77 40% 2 08.11.2026 -
Dmitry Kuchugura Veles 活跃 87 / 84 40% 1 05.11.2026 -
Daniil Zuev Khimik 活跃 76 / 90 40% 1 04.11.2026 -
Ilja Vakhania Krasnodar 活跃 107 / 127 40% 1 03.11.2026 -
Stepan Oganesyan Fakel 活跃 86 / 101 40% 1 01.11.2026 -
Radivoj Bosić Vitebsk 活跃 103 / 109 40% 1 31.10.2026 -
Kevin Pina Krasnodar 活跃 121 / 128 40% 2 30.10.2026 -
Ibragim Umarov Pobeda 活跃 93 / 98 40% 1 30.10.2026 -
Dmitry Lesnikov Volgar 活跃 99 / 85 40% 1 28.10.2026 -
Roman Yuzepchuk Dinamo Brest 活跃 87 / 98 40% 2 25.10.2026 -
Kirill Kaplenko BATE 活跃 93 / 94 40% 3 24.10.2026 -
Daniil Petrunin Sibir 活跃 78 / 95 40% 1 22.10.2026 -
Alexandr Lomakin Yenisey 活跃 110 / 98 40% 1 20.10.2026 -
Ruslan Bezrukov Rubin 活跃 119 / 122 40% 1 20.10.2026 -
Vladislav Yatskevich BATE 活跃 89 / 108 40% 3 18.10.2026 -
Yegor Kortsov Dinamo Brest 活跃 115 / 115 40% 1 18.10.2026 -
Vladislav Sychev Slutsk 活跃 90 / 78 40% 2 14.10.2026 -
Ivan Sutugin Khimik 活跃 81 / 94 40% 1 13.10.2026 -
Maxim Kovalevich Isloch 活跃 101 / 98 40% 3 12.10.2026 -
Alexey Larin Torpedo Miass 活跃 68 / 90 40% 1 11.10.2026 -
Semyon Yegorov Vitebsk 活跃 100 / 90 40% 1 10.10.2026 -
Vadim Martinkevich Gomel 活跃 89 / 83 40% 2 08.10.2026 -
Georgiy Kukushkin Gomel 活跃 85 / 80 40% 1 08.10.2026 -
Maxim Suprun Sevastopol 活跃 76 / 84 40% 1 07.10.2026 -
Sergey Volkov Isloch 活跃 84 / 90 40% 1 07.10.2026 -
Dmitriy Lisakovich Dnepr Mogilev 活跃 95 / 99 40% 1 05.10.2026 -
Alexandr Svirepa Isloch 活跃 88 / 103 40% 1 03.10.2026 -
Valentin Dikhtievskiy Minsk 活跃 87 / 83 40% 1 03.10.2026 -
Ilya Kukharchik Slavia Mozyr 活跃 88 / 77 40% 1 02.10.2026 -
Yuriy Lovets Arsenal Dzerzhinsk 活跃 83 / 93 40% 2 01.10.2026 -
Denis Kovalevich Gomel 活跃 82 / 87 40% 1 01.10.2026 -
Kirill Yelagin Smorgon 活跃 74 / 77 40% 1 29.09.2026 -
Nurdoolot Stalbekov Isloch 活跃 102 / 92 40% 1 29.09.2026 -
Viktor Sotnikov Gomel 活跃 107 / 96 40% 1 28.09.2026 -
Daniil Silinskiy Gomel 活跃 91 / 88 40% 2 26.09.2026 -
Egor Imeryakov Molodechno 活跃 89 / 76 40% 1 26.09.2026 -
Arseniy Galushko Smorgon 活跃 91 / 86 40% 1 26.09.2026 -
Alexandr Dzhigero Slavia Mozyr 活跃 88 / 81 40% 1 26.09.2026 -
Lucas Arce Godoy Cruz 活跃 116 / 132 40% 1 24.09.2026 -
Alexey Antilevskiy Slavia Mozyr 活跃 93 / 92 40% 2 23.09.2026 -
Vladislav Varaksa BATE 活跃 75 / 85 40% 1 23.09.2026 -
Kirill Leonovich Gomel 活跃 108 / 104 40% 1 21.09.2026 -
Nikita Neskoromnyi BATE 活跃 74 / 85 40% 1 21.09.2026 -
Nikita Kaplenko Arsenal Dzerzhinsk 活跃 89 / 81 40% 1 21.09.2026 -
Valentin Paltsev Krasnodar 活跃 114 / 105 40% 1 20.09.2026 -
Nikita Stepanov Dinamo Brest 活跃 107 / 103 40% 1 18.09.2026 -
Andrey Mendel Baltika 活跃 95 / 104 40% 2 16.09.2026 -
Alexandr Lomovitskiy Torpedo-BelAZ 活跃 98 / 102 40% 1 15.09.2026 -
Alexey Tkhagalegov Smorgon 活跃 86 / 71 40% 1 12.09.2026 -
Konstantin Nizhegorodov Rubin 活跃 109 / 108 40% 1 12.09.2026 -
Dzambolat Tsallagov Arsenal Dzerzhinsk 活跃 71 / 72 40% 1 09.09.2026 -
Yamoussa Camara Naftan 活跃 85 / 91 40% 1 08.09.2026 -
Danila Zhulpa Torpedo-BelAZ 活跃 76 / 86 40% 1 08.09.2026 -
Denis Grechikho Dinamo Brest 活跃 94 / 91 40% 1 07.09.2026 -
Louis Thompson Stevenage 活跃 103 / 104 40% 1 24.08.2026 -
Francisco Galván Deportivo Municipal 活跃 86 / 108 40% 1 17.08.2026 -
Ilja Porokhov Shinnik 活跃 84 / 98 40% 1 10.08.2026 -
Kaur Kivila Flora 活跃 91 / 81 40% 1 03.08.2026 -
Alexey Kashtanov Torpedo Moscow 活跃 109 / 105 40% 1 02.08.2026 -
Deividas Mikelionis Kauno Zalgiris 活跃 101 / 92 40% 1 01.08.2026 -
Rostislav Tyschenko Sevastopol 活跃 72 / 78 40% 1 01.08.2026 -